sensor_id;sensor_type;location;lat;lon;timestamp;temperature;humidity
22813;DHT22;11573;51.334;3.244;2023-02-13T00:00:48;8.40;99.90
22813;DHT22;11573;51.334;3.244;2023-02-13T00:03:15;8.40;99.90
22813;DHT22;11573;51.334;3.244;2023-02-13T00:05:42;8.40;99.90
22813;DHT22;11573;51.334;3.244;2023-02-13T00:08:09;8.40;99.90
22813;DHT22;11573;51.334;3.244;2023-02-13T00:10:36;8.30;99.90
22813;DHT22;11573;51.334;3.244;2023-02-13T00:13:03;8.20;99.90
22813;DHT22;11573;51.334;3.244;2023-02-13T00:15:30;8.20;99.90
22813;DHT22;11573;51.334;3.244;2023-02-13T00:17:58;8.30;99.90
22813;DHT22;11573;51.334;3.244;2023-02-13T00:20:27;8.30;99.90
22813;DHT22;11573;51.334;3.244;2023-02-13T00:22:54;8.30;99.90
22813;DHT22;11573;51.334;3.244;2023-02-13T00:25:23;8.30;99.90
22813;DHT22;11573;51.334;3.244;2023-02-13T00:27:51;8.20;99.90
22813;DHT22;11573;51.334;3.244;2023-02-13T00:30:21;8.20;99.90
22813;DHT22;11573;51.334;3.244;2023-02-13T00:32:50;8.20;99.90
22813;DHT22;11573;51.334;3.244;2023-02-13T00:35:17;8.20;99.90
22813;DHT22;11573;51.334;3.244;2023-02-13T00:37:44;8.30;99.90
22813;DHT22;11573;51.334;3.244;2023-02-13T00:40:11;8.20;99.90
22813;DHT22;11573;51.334;3.244;2023-02-13T00:42:39;8.10;99.90
22813;DHT22;11573;51.334;3.244;2023-02-13T00:45:08;8.10;99.90
22813;DHT22;11573;51.334;3.244;2023-02-13T00:47:35;8.00;99.90
22813;DHT22;11573;51.334;3.244;2023-02-13T00:50:03;7.90;99.90
22813;DHT22;11573;51.334;3.244;2023-02-13T00:52:30;7.90;99.90
22813;DHT22;11573;51.334;3.244;2023-02-13T00:54:57;8.00;99.90
22813;DHT22;11573;51.334;3.244;2023-02-13T00:57:24;8.10;99.90
22813;DHT22;11573;51.334;3.244;2023-02-13T00:59:52;8.10;99.90
22813;DHT22;11573;51.334;3.244;2023-02-13T01:02:21;8.20;99.90
22813;DHT22;11573;51.334;3.244;2023-02-13T01:04:48;8.20;99.90
22813;DHT22;11573;51.334;3.244;2023-02-13T01:07:18;8.10;99.90
22813;DHT22;11573;51.334;3.244;2023-02-13T01:09:45;8.00;99.90
22813;DHT22;11573;51.334;3.244;2023-02-13T01:12:15;8.00;99.90
22813;DHT22;11573;51.334;3.244;2023-02-13T01:14:44;8.10;99.90
22813;DHT22;11573;51.334;3.244;2023-02-13T01:17:11;8.20;99.90
22813;DHT22;11573;51.334;3.244;2023-02-13T01:19:39;8.10;99.90
22813;DHT22;11573;51.334;3.244;2023-02-13T01:22:07;8.10;99.90
22813;DHT22;11573;51.334;3.244;2023-02-13T01:24:35;8.10;99.90
22813;DHT22;11573;51.334;3.244;2023-02-13T01:27:02;8.10;99.90
22813;DHT22;11573;51.334;3.244;2023-02-13T01:29:30;8.00;99.90
22813;DHT22;11573;51.334;3.244;2023-02-13T01:31:59;8.10;99.90
22813;DHT22;11573;51.334;3.244;2023-02-13T01:34:31;8.00;99.90
22813;DHT22;11573;51.334;3.244;2023-02-13T01:36:59;8.00;99.90
22813;DHT22;11573;51.334;3.244;2023-02-13T01:39:26;7.90;99.90
22813;DHT22;11573;51.334;3.244;2023-02-13T01:41:53;7.90;99.90
22813;DHT22;11573;51.334;3.244;2023-02-13T01:44:47;8.00;99.90
22813;DHT22;11573;51.334;3.244;2023-02-13T01:47:27;7.90;99.90
22813;DHT22;11573;51.334;3.244;2023-02-13T01:53:00;7.80;99.90
22813;DHT22;11573;51.334;3.244;2023-02-13T01:55:33;7.80;99.90
22813;DHT22;11573;51.334;3.244;2023-02-13T01:58:08;7.80;99.90
22813;DHT22;11573;51.334;3.244;2023-02-13T02:00:37;7.80;99.90
22813;DHT22;11573;51.334;3.244;2023-02-13T02:03:12;7.70;99.90
22813;DHT22;11573;51.334;3.244;2023-02-13T02:05:41;7.70;99.90
22813;DHT22;11573;51.334;3.244;2023-02-13T02:08:10;7.70;99.90
22813;DHT22;11573;51.334;3.244;2023-02-13T02:10:39;7.70;99.90
22813;DHT22;11573;51.334;3.244;2023-02-13T02:13:13;7.70;99.90
22813;DHT22;11573;51.334;3.244;2023-02-13T02:15:43;7.70;99.90
22813;DHT22;11573;51.334;3.244;2023-02-13T02:18:23;7.70;99.90
22813;DHT22;11573;51.334;3.244;2023-02-13T02:26:58;7.70;99.90
22813;DHT22;11573;51.334;3.244;2023-02-13T02:41:24;7.60;99.90
22813;DHT22;11573;51.334;3.244;2023-02-13T02:47:22;7.50;99.90
22813;DHT22;11573;51.334;3.244;2023-02-13T02:55:37;7.40;99.90
22813;DHT22;11573;51.334;3.244;2023-02-13T03:01:10;7.40;99.90
22813;DHT22;11573;51.334;3.244;2023-02-13T03:04:25;7.40;99.90
22813;DHT22;11573;51.334;3.244;2023-02-13T03:07:15;7.40;99.90
22813;DHT22;11573;51.334;3.244;2023-02-13T03:09:47;7.30;99.90
22813;DHT22;11573;51.334;3.244;2023-02-13T03:12:39;7.30;99.90
22813;DHT22;11573;51.334;3.244;2023-02-13T03:15:27;7.30;99.90
22813;DHT22;11573;51.334;3.244;2023-02-13T03:17:55;7.20;99.90
22813;DHT22;11573;51.334;3.244;2023-02-13T03:20:45;7.20;99.90
22813;DHT22;11573;51.334;3.244;2023-02-13T03:23:44;7.30;99.90
22813;DHT22;11573;51.334;3.244;2023-02-13T03:29:34;7.20;99.90
22813;DHT22;11573;51.334;3.244;2023-02-13T03:38:15;7.20;99.90
22813;DHT22;11573;51.334;3.244;2023-02-13T03:46:45;7.20;99.90
22813;DHT22;11573;51.334;3.244;2023-02-13T03:49:25;7.20;99.90
22813;DHT22;11573;51.334;3.244;2023-02-13T03:52:28;7.20;99.90
22813;DHT22;11573;51.334;3.244;2023-02-13T03:57:53;7.20;99.90
22813;DHT22;11573;51.334;3.244;2023-02-13T04:00:49;7.20;99.90
22813;DHT22;11573;51.334;3.244;2023-02-13T04:03:30;7.20;99.90
22813;DHT22;11573;51.334;3.244;2023-02-13T04:06:14;7.20;99.90
22813;DHT22;11573;51.334;3.244;2023-02-13T04:08:42;7.20;99.90
22813;DHT22;11573;51.334;3.244;2023-02-13T04:14:04;7.30;99.90
22813;DHT22;11573;51.334;3.244;2023-02-13T04:16:42;7.20;99.90
22813;DHT22;11573;51.334;3.244;2023-02-13T04:19:10;7.20;99.90
22813;DHT22;11573;51.334;3.244;2023-02-13T04:21:39;7.10;99.90
22813;DHT22;11573;51.334;3.244;2023-02-13T04:24:07;7.10;99.90
22813;DHT22;11573;51.334;3.244;2023-02-13T04:26:37;7.20;99.90
22813;DHT22;11573;51.334;3.244;2023-02-13T04:29:06;7.10;99.90
22813;DHT22;11573;51.334;3.244;2023-02-13T04:31:35;7.20;99.90
22813;DHT22;11573;51.334;3.244;2023-02-13T04:34:02;7.10;99.90
22813;DHT22;11573;51.334;3.244;2023-02-13T04:36:31;7.00;99.90
22813;DHT22;11573;51.334;3.244;2023-02-13T04:38:58;7.00;99.90
22813;DHT22;11573;51.334;3.244;2023-02-13T04:41:25;6.90;99.90
22813;DHT22;11573;51.334;3.244;2023-02-13T04:43:53;6.90;99.90
22813;DHT22;11573;51.334;3.244;2023-02-13T04:46:21;6.80;99.90
22813;DHT22;11573;51.334;3.244;2023-02-13T04:48:48;6.80;99.90
22813;DHT22;11573;51.334;3.244;2023-02-13T04:51:15;6.80;99.90
22813;DHT22;11573;51.334;3.244;2023-02-13T04:53:43;6.80;99.90
22813;DHT22;11573;51.334;3.244;2023-02-13T04:56:10;6.70;99.90
22813;DHT22;11573;51.334;3.244;2023-02-13T04:58:37;6.70;99.90
22813;DHT22;11573;51.334;3.244;2023-02-13T05:01:15;6.70;99.90
22813;DHT22;11573;51.334;3.244;2023-02-13T05:03:42;6.70;99.90
22813;DHT22;11573;51.334;3.244;2023-02-13T05:06:09;6.60;99.90
22813;DHT22;11573;51.334;3.244;2023-02-13T05:08:36;6.60;99.90
22813;DHT22;11573;51.334;3.244;2023-02-13T05:11:04;6.60;99.90
22813;DHT22;11573;51.334;3.244;2023-02-13T05:13:32;6.60;99.90
22813;DHT22;11573;51.334;3.244;2023-02-13T05:15:59;6.60;99.90
22813;DHT22;11573;51.334;3.244;2023-02-13T05:18:38;6.60;99.90
22813;DHT22;11573;51.334;3.244;2023-02-13T05:21:05;6.60;99.90
22813;DHT22;11573;51.334;3.244;2023-02-13T05:23:52;6.60;99.90
22813;DHT22;11573;51.334;3.244;2023-02-13T05:26:19;6.60;99.90
22813;DHT22;11573;51.334;3.244;2023-02-13T05:28:47;6.60;99.90
22813;DHT22;11573;51.334;3.244;2023-02-13T05:31:40;6.60;99.90
22813;DHT22;11573;51.334;3.244;2023-02-13T05:34:07;6.60;99.90
22813;DHT22;11573;51.334;3.244;2023-02-13T05:36:37;6.60;99.90
22813;DHT22;11573;51.334;3.244;2023-02-13T05:39:06;6.70;99.90
22813;DHT22;11573;51.334;3.244;2023-02-13T05:41:36;6.70;99.90
22813;DHT22;11573;51.334;3.244;2023-02-13T05:44:05;6.70;99.90
22813;DHT22;11573;51.334;3.244;2023-02-13T05:46:33;6.70;99.90
22813;DHT22;11573;51.334;3.244;2023-02-13T05:49:06;6.70;99.90
22813;DHT22;11573;51.334;3.244;2023-02-13T05:51:33;6.70;99.90
22813;DHT22;11573;51.334;3.244;2023-02-13T05:54:04;6.70;99.90
22813;DHT22;11573;51.334;3.244;2023-02-13T05:56:31;6.80;99.90
22813;DHT22;11573;51.334;3.244;2023-02-13T05:58:58;6.70;99.90
22813;DHT22;11573;51.334;3.244;2023-02-13T06:01:25;6.70;99.90
22813;DHT22;11573;51.334;3.244;2023-02-13T06:03:52;6.80;99.90
22813;DHT22;11573;51.334;3.244;2023-02-13T06:06:20;6.80;99.90
22813;DHT22;11573;51.334;3.244;2023-02-13T06:08:48;6.80;99.90
22813;DHT22;11573;51.334;3.244;2023-02-13T06:11:16;6.80;99.90
22813;DHT22;11573;51.334;3.244;2023-02-13T06:13:43;6.80;99.90
22813;DHT22;11573;51.334;3.244;2023-02-13T06:16:12;6.80;99.90
22813;DHT22;11573;51.334;3.244;2023-02-13T06:18:39;6.80;99.90
22813;DHT22;11573;51.334;3.244;2023-02-13T06:21:07;6.80;99.90
22813;DHT22;11573;51.334;3.244;2023-02-13T06:23:35;6.80;99.90
22813;DHT22;11573;51.334;3.244;2023-02-13T06:26:07;6.80;99.90
22813;DHT22;11573;51.334;3.244;2023-02-13T06:28:34;6.80;99.90
22813;DHT22;11573;51.334;3.244;2023-02-13T06:31:02;6.90;99.90
22813;DHT22;11573;51.334;3.244;2023-02-13T06:33:29;6.90;99.90
22813;DHT22;11573;51.334;3.244;2023-02-13T06:35:57;6.90;99.90
22813;DHT22;11573;51.334;3.244;2023-02-13T06:38:24;6.80;99.90
22813;DHT22;11573;51.334;3.244;2023-02-13T06:40:51;6.80;99.90
22813;DHT22;11573;51.334;3.244;2023-02-13T06:43:18;6.80;99.90
22813;DHT22;11573;51.334;3.244;2023-02-13T06:45:45;6.90;99.90
22813;DHT22;11573;51.334;3.244;2023-02-13T06:48:13;7.00;99.90
22813;DHT22;11573;51.334;3.244;2023-02-13T06:50:42;6.90;99.90
22813;DHT22;11573;51.334;3.244;2023-02-13T06:53:09;6.90;99.90
22813;DHT22;11573;51.334;3.244;2023-02-13T06:55:36;6.90;99.90
22813;DHT22;11573;51.334;3.244;2023-02-13T06:58:06;6.90;99.90
22813;DHT22;11573;51.334;3.244;2023-02-13T07:00:33;6.90;99.90
22813;DHT22;11573;51.334;3.244;2023-02-13T07:03:04;6.90;99.90
22813;DHT22;11573;51.334;3.244;2023-02-13T07:05:32;6.90;99.90
22813;DHT22;11573;51.334;3.244;2023-02-13T07:08:00;6.90;99.90
22813;DHT22;11573;51.334;3.244;2023-02-13T07:10:27;6.80;99.90
22813;DHT22;11573;51.334;3.244;2023-02-13T07:12:55;6.80;99.90
22813;DHT22;11573;51.334;3.244;2023-02-13T07:15:32;6.90;99.90
22813;DHT22;11573;51.334;3.244;2023-02-13T07:18:02;6.90;99.90
22813;DHT22;11573;51.334;3.244;2023-02-13T07:20:29;6.90;99.90
22813;DHT22;11573;51.334;3.244;2023-02-13T07:22:58;6.90;99.90
22813;DHT22;11573;51.334;3.244;2023-02-13T07:25:26;7.00;99.90
22813;DHT22;11573;51.334;3.244;2023-02-13T07:28:02;7.00;99.90
22813;DHT22;11573;51.334;3.244;2023-02-13T07:30:30;7.10;99.90
22813;DHT22;11573;51.334;3.244;2023-02-13T07:33:02;7.10;99.90
22813;DHT22;11573;51.334;3.244;2023-02-13T07:35:32;7.00;99.90
22813;DHT22;11573;51.334;3.244;2023-02-13T07:38:00;7.10;99.90
22813;DHT22;11573;51.334;3.244;2023-02-13T07:40:28;7.00;99.90
22813;DHT22;11573;51.334;3.244;2023-02-13T07:42:59;7.20;99.90
22813;DHT22;11573;51.334;3.244;2023-02-13T07:45:27;7.20;99.90
22813;DHT22;11573;51.334;3.244;2023-02-13T07:47:55;7.20;99.90
22813;DHT22;11573;51.334;3.244;2023-02-13T07:50:23;7.20;99.90
22813;DHT22;11573;51.334;3.244;2023-02-13T07:52:55;7.30;99.90
22813;DHT22;11573;51.334;3.244;2023-02-13T07:55:25;7.30;99.90
22813;DHT22;11573;51.334;3.244;2023-02-13T07:57:52;7.40;99.90
22813;DHT22;11573;51.334;3.244;2023-02-13T08:00:20;7.50;99.90
22813;DHT22;11573;51.334;3.244;2023-02-13T08:02:47;7.60;99.90
22813;DHT22;11573;51.334;3.244;2023-02-13T08:05:15;7.60;99.90
22813;DHT22;11573;51.334;3.244;2023-02-13T08:07:42;7.70;99.90
22813;DHT22;11573;51.334;3.244;2023-02-13T08:10:12;7.70;99.90
22813;DHT22;11573;51.334;3.244;2023-02-13T08:12:59;7.90;99.90
22813;DHT22;11573;51.334;3.244;2023-02-13T08:15:26;7.90;99.90
22813;DHT22;11573;51.334;3.244;2023-02-13T08:17:55;8.00;99.90
22813;DHT22;11573;51.334;3.244;2023-02-13T08:20:26;8.20;99.90
22813;DHT22;11573;51.334;3.244;2023-02-13T08:23:04;8.30;99.90
22813;DHT22;11573;51.334;3.244;2023-02-13T08:25:32;8.40;99.90
22813;DHT22;11573;51.334;3.244;2023-02-13T08:28:02;8.30;99.90
22813;DHT22;11573;51.334;3.244;2023-02-13T08:30:30;8.40;99.90
22813;DHT22;11573;51.334;3.244;2023-02-13T08:32:57;8.60;99.90
22813;DHT22;11573;51.334;3.244;2023-02-13T08:35:24;8.60;99.90
22813;DHT22;11573;51.334;3.244;2023-02-13T08:37:55;8.80;99.90
22813;DHT22;11573;51.334;3.244;2023-02-13T08:40:23;9.00;99.90
22813;DHT22;11573;51.334;3.244;2023-02-13T08:42:51;9.10;99.90
22813;DHT22;11573;51.334;3.244;2023-02-13T08:45:18;9.30;99.90
22813;DHT22;11573;51.334;3.244;2023-02-13T08:47:46;9.30;99.90
22813;DHT22;11573;51.334;3.244;2023-02-13T08:50:13;9.40;99.90
22813;DHT22;11573;51.334;3.244;2023-02-13T08:52:40;9.30;98.50
22813;DHT22;11573;51.334;3.244;2023-02-13T08:55:09;9.30;95.00
22813;DHT22;11573;51.334;3.244;2023-02-13T08:57:36;9.10;94.10
22813;DHT22;11573;51.334;3.244;2023-02-13T09:00:04;9.00;93.30
22813;DHT22;11573;51.334;3.244;2023-02-13T09:02:32;9.00;95.60
22813;DHT22;11573;51.334;3.244;2023-02-13T09:05:00;9.00;94.50
22813;DHT22;11573;51.334;3.244;2023-02-13T09:07:28;8.90;94.30
22813;DHT22;11573;51.334;3.244;2023-02-13T09:10:03;8.90;94.90
22813;DHT22;11573;51.334;3.244;2023-02-13T09:12:30;8.80;91.00
22813;DHT22;11573;51.334;3.244;2023-02-13T09:14:57;8.80;92.00
22813;DHT22;11573;51.334;3.244;2023-02-13T09:17:24;8.70;95.00
22813;DHT22;11573;51.334;3.244;2023-02-13T09:20:02;8.60;93.00
22813;DHT22;11573;51.334;3.244;2023-02-13T09:22:29;8.70;94.80
22813;DHT22;11573;51.334;3.244;2023-02-13T09:24:57;8.70;96.00
22813;DHT22;11573;51.334;3.244;2023-02-13T09:27:26;8.50;94.00
22813;DHT22;11573;51.334;3.244;2023-02-13T09:29:55;8.50;95.90
22813;DHT22;11573;51.334;3.244;2023-02-13T09:32:23;8.40;98.70
22813;DHT22;11573;51.334;3.244;2023-02-13T09:34:50;8.40;99.90
22813;DHT22;11573;51.334;3.244;2023-02-13T09:37:17;8.40;99.90
22813;DHT22;11573;51.334;3.244;2023-02-13T09:39:44;8.50;99.90
22813;DHT22;11573;51.334;3.244;2023-02-13T09:42:24;8.50;99.90
22813;DHT22;11573;51.334;3.244;2023-02-13T09:44:56;8.50;99.90
22813;DHT22;11573;51.334;3.244;2023-02-13T09:47:40;8.40;99.90
22813;DHT22;11573;51.334;3.244;2023-02-13T09:50:19;8.40;99.90
22813;DHT22;11573;51.334;3.244;2023-02-13T09:52:50;8.40;99.90
22813;DHT22;11573;51.334;3.244;2023-02-13T10:00:56;8.70;99.90
22813;DHT22;11573;51.334;3.244;2023-02-13T10:03:50;8.80;99.90
22813;DHT22;11573;51.334;3.244;2023-02-13T10:06:44;8.90;99.90
22813;DHT22;11573;51.334;3.244;2023-02-13T10:09:18;9.00;99.90
22813;DHT22;11573;51.334;3.244;2023-02-13T10:17:23;9.10;99.90
22813;DHT22;11573;51.334;3.244;2023-02-13T10:25:55;9.30;98.50
22813;DHT22;11573;51.334;3.244;2023-02-13T10:28:53;9.30;99.90
22813;DHT22;11573;51.334;3.244;2023-02-13T10:31:42;9.40;96.90
22813;DHT22;11573;51.334;3.244;2023-02-13T10:34:15;9.30;94.10
22813;DHT22;11573;51.334;3.244;2023-02-13T10:36:46;9.50;92.20
22813;DHT22;11573;51.334;3.244;2023-02-13T10:39:21;9.40;90.50
22813;DHT22;11573;51.334;3.244;2023-02-13T10:41:52;9.60;88.60
22813;DHT22;11573;51.334;3.244;2023-02-13T10:58:29;9.70;69.30
22813;DHT22;11573;51.334;3.244;2023-02-13T11:03:42;9.80;72.30
22813;DHT22;11573;51.334;3.244;2023-02-13T11:06:17;9.90;69.80
22813;DHT22;11573;51.334;3.244;2023-02-13T11:08:47;9.90;68.40
22813;DHT22;11573;51.334;3.244;2023-02-13T11:11:28;10.00;62.80
22813;DHT22;11573;51.334;3.244;2023-02-13T11:14:17;10.00;62.50
22813;DHT22;11573;51.334;3.244;2023-02-13T11:16:57;10.10;60.40
22813;DHT22;11573;51.334;3.244;2023-02-13T11:19:46;10.10;57.10
22813;DHT22;11573;51.334;3.244;2023-02-13T11:22:34;10.20;56.20
22813;DHT22;11573;51.334;3.244;2023-02-13T11:25:05;10.30;54.00
22813;DHT22;11573;51.334;3.244;2023-02-13T11:27:36;10.30;47.50
22813;DHT22;11573;51.334;3.244;2023-02-13T11:30:34;10.30;48.10
22813;DHT22;11573;51.334;3.244;2023-02-13T11:33:05;10.40;54.10
22813;DHT22;11573;51.334;3.244;2023-02-13T11:35:36;10.50;51.20
22813;DHT22;11573;51.334;3.244;2023-02-13T11:38:22;10.50;50.20
22813;DHT22;11573;51.334;3.244;2023-02-13T11:41:08;10.50;48.90
22813;DHT22;11573;51.334;3.244;2023-02-13T11:46:23;10.60;45.30
22813;DHT22;11573;51.334;3.244;2023-02-13T11:49:03;10.70;47.10
22813;DHT22;11573;51.334;3.244;2023-02-13T11:51:38;10.70;43.50
22813;DHT22;11573;51.334;3.244;2023-02-13T11:54:28;10.60;43.50
22813;DHT22;11573;51.334;3.244;2023-02-13T11:59:46;10.60;46.80
22813;DHT22;11573;51.334;3.244;2023-02-13T12:02:22;10.70;47.20
22813;DHT22;11573;51.334;3.244;2023-02-13T12:05:13;10.80;48.20
22813;DHT22;11573;51.334;3.244;2023-02-13T12:07:39;10.90;45.40
22813;DHT22;11573;51.334;3.244;2023-02-13T12:10:27;10.80;31.50
22813;DHT22;11573;51.334;3.244;2023-02-13T12:13:13;10.90;38.50
22813;DHT22;11573;51.334;3.244;2023-02-13T12:15:42;10.90;36.40
22813;DHT22;11573;51.334;3.244;2023-02-13T12:18:37;10.90;38.80
22813;DHT22;11573;51.334;3.244;2023-02-13T12:29:03;11.10;32.30
22813;DHT22;11573;51.334;3.244;2023-02-13T12:31:58;11.30;31.20
22813;DHT22;11573;51.334;3.244;2023-02-13T12:34:33;11.30;26.50
22813;DHT22;11573;51.334;3.244;2023-02-13T12:58:06;11.70;20.40
22813;DHT22;11573;51.334;3.244;2023-02-13T13:12:00;11.70;12.60
22813;DHT22;11573;51.334;3.244;2023-02-13T13:22:36;11.90;10.80
22813;DHT22;11573;51.334;3.244;2023-02-13T13:28:10;12.00;6.90
22813;DHT22;11573;51.334;3.244;2023-02-13T13:30:41;12.00;7.70
22813;DHT22;11573;51.334;3.244;2023-02-13T13:54:56;12.10;1.00
22813;DHT22;11573;51.334;3.244;2023-02-13T14:02:47;12.20;1.00
22813;DHT22;11573;51.334;3.244;2023-02-13T14:05:25;12.30;1.00
22813;DHT22;11573;51.334;3.244;2023-02-13T14:08:02;12.40;1.00
22813;DHT22;11573;51.334;3.244;2023-02-13T14:13:01;12.30;1.00
22813;DHT22;11573;51.334;3.244;2023-02-13T14:23:57;12.30;1.00
22813;DHT22;11573;51.334;3.244;2023-02-13T14:26:31;12.30;1.00
22813;DHT22;11573;51.334;3.244;2023-02-13T14:31:39;12.30;1.00
22813;DHT22;11573;51.334;3.244;2023-02-13T14:34:18;12.40;1.00
22813;DHT22;11573;51.334;3.244;2023-02-13T14:37:05;12.40;1.00
22813;DHT22;11573;51.334;3.244;2023-02-13T14:39:34;12.40;1.00
22813;DHT22;11573;51.334;3.244;2023-02-13T14:42:22;12.30;1.00
22813;DHT22;11573;51.334;3.244;2023-02-13T14:44:55;12.40;1.00
22813;DHT22;11573;51.334;3.244;2023-02-13T14:47:38;12.30;1.00
22813;DHT22;11573;51.334;3.244;2023-02-13T14:50:21;12.30;1.00
22813;DHT22;11573;51.334;3.244;2023-02-13T14:52:50;12.30;1.00
22813;DHT22;11573;51.334;3.244;2023-02-13T14:55:37;12.20;1.00
22813;DHT22;11573;51.334;3.244;2023-02-13T14:58:15;12.30;1.00
22813;DHT22;11573;51.334;3.244;2023-02-13T15:01:05;12.20;1.00
22813;DHT22;11573;51.334;3.244;2023-02-13T15:03:53;12.30;1.00
22813;DHT22;11573;51.334;3.244;2023-02-13T15:06:49;12.40;1.00
22813;DHT22;11573;51.334;3.244;2023-02-13T15:11:50;12.30;1.00
22813;DHT22;11573;51.334;3.244;2023-02-13T15:14:31;12.30;1.00
22813;DHT22;11573;51.334;3.244;2023-02-13T15:17:16;12.20;1.00
22813;DHT22;11573;51.334;3.244;2023-02-13T15:19:50;12.10;1.00
22813;DHT22;11573;51.334;3.244;2023-02-13T15:22:36;12.10;1.00
22813;DHT22;11573;51.334;3.244;2023-02-13T15:25:06;12.10;1.00
22813;DHT22;11573;51.334;3.244;2023-02-13T15:27:40;12.10;1.00
22813;DHT22;11573;51.334;3.244;2023-02-13T15:30:34;12.10;1.00
22813;DHT22;11573;51.334;3.244;2023-02-13T15:33:17;12.00;1.00
22813;DHT22;11573;51.334;3.244;2023-02-13T15:35:45;11.80;1.00
22813;DHT22;11573;51.334;3.244;2023-02-13T15:38:42;11.80;1.00
22813;DHT22;11573;51.334;3.244;2023-02-13T15:41:19;11.60;1.00
22813;DHT22;11573;51.334;3.244;2023-02-13T15:43:54;11.60;1.00
22813;DHT22;11573;51.334;3.244;2023-02-13T15:46:33;11.50;3.50
22813;DHT22;11573;51.334;3.244;2023-02-13T15:49:11;11.50;7.80
22813;DHT22;11573;51.334;3.244;2023-02-13T15:51:40;11.50;8.90
22813;DHT22;11573;51.334;3.244;2023-02-13T15:54:30;11.50;8.70
22813;DHT22;11573;51.334;3.244;2023-02-13T15:57:08;11.50;8.90
22813;DHT22;11573;51.334;3.244;2023-02-13T15:59:38;11.40;11.40
22813;DHT22;11573;51.334;3.244;2023-02-13T16:02:13;11.30;9.60
22813;DHT22;11573;51.334;3.244;2023-02-13T16:04:42;11.00;14.20
22813;DHT22;11573;51.334;3.244;2023-02-13T16:07:11;10.90;19.20
22813;DHT22;11573;51.334;3.244;2023-02-13T16:09:39;10.70;24.90
22813;DHT22;11573;51.334;3.244;2023-02-13T16:12:22;10.60;34.90
22813;DHT22;11573;51.334;3.244;2023-02-13T16:14:51;10.60;45.50
22813;DHT22;11573;51.334;3.244;2023-02-13T16:17:32;10.60;43.80
22813;DHT22;11573;51.334;3.244;2023-02-13T16:20:06;10.40;48.50
22813;DHT22;11573;51.334;3.244;2023-02-13T16:30:39;10.00;62.90
22813;DHT22;11573;51.334;3.244;2023-02-13T16:35:57;9.70;72.50
22813;DHT22;11573;51.334;3.244;2023-02-13T16:38:47;9.60;77.90
22813;DHT22;11573;51.334;3.244;2023-02-13T16:44:05;9.40;91.10
22813;DHT22;11573;51.334;3.244;2023-02-13T16:46:38;9.30;93.80
22813;DHT22;11573;51.334;3.244;2023-02-13T16:54:45;8.90;99.90
22813;DHT22;11573;51.334;3.244;2023-02-13T17:04:57;8.70;99.90
22813;DHT22;11573;51.334;3.244;2023-02-13T17:07:30;8.80;99.90
22813;DHT22;11573;51.334;3.244;2023-02-13T17:12:48;8.80;99.90
22813;DHT22;11573;51.334;3.244;2023-02-13T17:15:19;8.80;99.90
22813;DHT22;11573;51.334;3.244;2023-02-13T17:17:47;8.70;99.90
22813;DHT22;11573;51.334;3.244;2023-02-13T17:20:20;8.70;99.90
22813;DHT22;11573;51.334;3.244;2023-02-13T17:22:51;8.60;99.90
22813;DHT22;11573;51.334;3.244;2023-02-13T17:25:22;8.40;99.90
22813;DHT22;11573;51.334;3.244;2023-02-13T17:27:50;8.10;99.90
22813;DHT22;11573;51.334;3.244;2023-02-13T17:30:24;7.90;99.90
22813;DHT22;11573;51.334;3.244;2023-02-13T17:33:09;7.70;99.90
22813;DHT22;11573;51.334;3.244;2023-02-13T17:35:38;7.60;99.90
22813;DHT22;11573;51.334;3.244;2023-02-13T17:38:05;7.50;99.90
22813;DHT22;11573;51.334;3.244;2023-02-13T17:40:35;7.50;99.90
22813;DHT22;11573;51.334;3.244;2023-02-13T17:43:03;7.40;99.90
22813;DHT22;11573;51.334;3.244;2023-02-13T17:45:33;7.20;99.90
22813;DHT22;11573;51.334;3.244;2023-02-13T17:48:01;7.10;99.90
22813;DHT22;11573;51.334;3.244;2023-02-13T17:50:30;7.00;99.90
22813;DHT22;11573;51.334;3.244;2023-02-13T17:53:01;6.90;99.90
22813;DHT22;11573;51.334;3.244;2023-02-13T17:55:31;6.80;99.90
22813;DHT22;11573;51.334;3.244;2023-02-13T17:58:00;6.80;99.90
22813;DHT22;11573;51.334;3.244;2023-02-13T18:00:31;6.80;99.90
22813;DHT22;11573;51.334;3.244;2023-02-13T18:03:01;6.80;99.90
22813;DHT22;11573;51.334;3.244;2023-02-13T18:05:29;6.80;99.90
22813;DHT22;11573;51.334;3.244;2023-02-13T18:08:02;6.70;99.90
22813;DHT22;11573;51.334;3.244;2023-02-13T18:10:33;6.60;99.90
22813;DHT22;11573;51.334;3.244;2023-02-13T18:13:02;6.50;99.90
22813;DHT22;11573;51.334;3.244;2023-02-13T18:15:40;6.40;99.90
22813;DHT22;11573;51.334;3.244;2023-02-13T18:18:09;6.40;99.90
22813;DHT22;11573;51.334;3.244;2023-02-13T18:20:36;6.40;99.90
22813;DHT22;11573;51.334;3.244;2023-02-13T18:23:07;6.30;99.90
22813;DHT22;11573;51.334;3.244;2023-02-13T18:25:35;6.20;99.90
22813;DHT22;11573;51.334;3.244;2023-02-13T18:28:02;6.20;99.90
22813;DHT22;11573;51.334;3.244;2023-02-13T18:30:29;6.20;99.90
22813;DHT22;11573;51.334;3.244;2023-02-13T18:32:57;6.20;99.90
22813;DHT22;11573;51.334;3.244;2023-02-13T18:35:26;6.10;99.90
22813;DHT22;11573;51.334;3.244;2023-02-13T18:37:53;6.00;99.90
22813;DHT22;11573;51.334;3.244;2023-02-13T18:40:21;6.00;99.90
22813;DHT22;11573;51.334;3.244;2023-02-13T18:42:49;5.90;99.90
22813;DHT22;11573;51.334;3.244;2023-02-13T18:45:17;5.90;99.90
22813;DHT22;11573;51.334;3.244;2023-02-13T18:47:45;5.80;99.90
22813;DHT22;11573;51.334;3.244;2023-02-13T18:50:13;5.80;99.90
22813;DHT22;11573;51.334;3.244;2023-02-13T18:52:40;5.80;99.90
22813;DHT22;11573;51.334;3.244;2023-02-13T18:55:08;5.80;99.90
22813;DHT22;11573;51.334;3.244;2023-02-13T18:57:36;5.90;99.90
22813;DHT22;11573;51.334;3.244;2023-02-13T19:00:04;5.80;99.90
22813;DHT22;11573;51.334;3.244;2023-02-13T19:02:31;5.70;99.90
22813;DHT22;11573;51.334;3.244;2023-02-13T19:04:59;5.70;99.90
22813;DHT22;11573;51.334;3.244;2023-02-13T19:07:27;5.60;99.90
22813;DHT22;11573;51.334;3.244;2023-02-13T19:09:55;5.60;99.90
22813;DHT22;11573;51.334;3.244;2023-02-13T19:12:22;5.50;99.90
22813;DHT22;11573;51.334;3.244;2023-02-13T19:14:49;5.50;99.90
22813;DHT22;11573;51.334;3.244;2023-02-13T19:17:16;5.50;99.90
22813;DHT22;11573;51.334;3.244;2023-02-13T19:19:44;5.50;99.90
22813;DHT22;11573;51.334;3.244;2023-02-13T19:22:14;5.40;99.90
22813;DHT22;11573;51.334;3.244;2023-02-13T19:24:41;5.40;99.90
22813;DHT22;11573;51.334;3.244;2023-02-13T19:27:09;5.30;99.90
22813;DHT22;11573;51.334;3.244;2023-02-13T19:29:37;5.20;99.90
22813;DHT22;11573;51.334;3.244;2023-02-13T19:32:04;5.10;99.90
22813;DHT22;11573;51.334;3.244;2023-02-13T19:34:31;5.20;99.90
22813;DHT22;11573;51.334;3.244;2023-02-13T19:36:59;5.20;99.90
22813;DHT22;11573;51.334;3.244;2023-02-13T19:39:26;5.20;99.90
22813;DHT22;11573;51.334;3.244;2023-02-13T19:41:55;5.20;99.90
22813;DHT22;11573;51.334;3.244;2023-02-13T19:44:22;5.30;99.90
22813;DHT22;11573;51.334;3.244;2023-02-13T19:46:50;5.30;99.90
22813;DHT22;11573;51.334;3.244;2023-02-13T19:49:18;5.10;99.90
22813;DHT22;11573;51.334;3.244;2023-02-13T19:51:49;5.10;99.90
22813;DHT22;11573;51.334;3.244;2023-02-13T19:54:16;5.00;99.90